createdAt,value
2023-03-23T15:59:10.262Z,18.87
2023-03-23T16:01:39.976Z,18.99
2023-03-23T16:04:10.264Z,18.77
2023-03-23T16:06:38.394Z,18.82
2023-03-23T16:09:11.026Z,19.08
2023-03-23T16:11:38.775Z,18.95
2023-03-23T16:14:06.237Z,19.40
2023-03-23T16:16:38.676Z,19.50
2023-03-23T16:19:06.733Z,19.77
2023-03-23T16:21:34.658Z,19.79
2023-03-23T16:24:02.295Z,19.74
2023-03-23T16:26:31.367Z,19.65
2023-03-23T16:29:09.625Z,19.97
2023-03-23T16:31:40.450Z,19.51
2023-03-23T16:34:09.072Z,19.24
2023-03-23T16:36:37.130Z,19.23
2023-03-23T16:39:04.645Z,19.10
2023-03-23T16:41:33.730Z,19.04
2023-03-23T16:44:01.211Z,19.26
2023-03-23T16:46:29.533Z,19.69
2023-03-23T16:48:57.070Z,19.78
2023-03-23T16:51:24.557Z,19.85
2023-03-23T16:53:52.031Z,19.94
2023-03-23T16:56:19.777Z,19.96
2023-03-23T16:58:48.562Z,19.91
2023-03-23T17:01:16.079Z,19.70
2023-03-23T17:03:44.176Z,19.77
2023-03-23T17:06:11.776Z,19.47
2023-03-23T17:08:39.249Z,19.40
2023-03-23T17:11:07.126Z,19.36
2023-03-23T17:13:34.601Z,19.26
2023-03-23T17:16:03.518Z,19.28
2023-03-23T17:18:31.486Z,19.03
2023-03-23T17:20:58.971Z,18.76
2023-03-23T17:23:26.537Z,18.54
2023-03-23T17:25:54.075Z,17.97
2023-03-23T17:28:21.611Z,17.79
2023-03-23T17:30:49.448Z,17.67
2023-03-23T17:33:18.248Z,17.41
2023-03-23T17:35:47.349Z,17.83
2023-03-23T17:38:15.381Z,18.18
2023-03-23T17:40:42.866Z,18.35
2023-03-23T17:43:10.397Z,18.15
2023-03-23T17:45:37.913Z,18.28
2023-03-23T17:48:07.716Z,18.28
2023-03-23T17:50:37.183Z,18.27
2023-03-23T17:53:04.978Z,18.26
2023-03-23T17:55:32.568Z,18.28
2023-03-23T17:58:00.069Z,18.09
2023-03-23T18:00:27.572Z,17.89
2023-03-23T18:02:56.371Z,17.76
2023-03-23T18:05:24.534Z,17.64
2023-03-23T18:07:53.341Z,17.35
2023-03-23T18:10:21.480Z,17.16
2023-03-23T18:12:50.773Z,16.91
2023-03-23T18:15:19.118Z,16.66
2023-03-23T18:17:48.201Z,16.54
2023-03-23T18:20:16.478Z,16.14
2023-03-23T18:22:44.281Z,16.03
2023-03-23T18:25:13.092Z,16.01
2023-03-23T18:27:40.669Z,15.94
2023-03-23T18:30:09.581Z,16.19
2023-03-23T18:32:37.616Z,16.15
2023-03-23T18:35:06.363Z,15.88
2023-03-23T18:37:34.311Z,15.82
2023-03-23T18:40:02.168Z,15.80
2023-03-23T18:42:31.090Z,15.76
2023-03-23T18:44:59.813Z,15.88
2023-03-23T18:47:27.499Z,15.76
2023-03-23T18:49:55.937Z,15.81
2023-03-23T18:52:26.046Z,16.20
2023-03-23T18:54:54.738Z,16.07
2023-03-23T18:57:22.609Z,16.27
2023-03-23T18:59:51.602Z,16.29
2023-03-23T19:02:19.960Z,16.18
2023-03-23T19:04:48.261Z,16.05
2023-03-23T19:07:17.610Z,16.13
2023-03-23T19:09:47.354Z,16.19
2023-03-23T19:12:15.581Z,15.24
2023-03-23T19:14:43.609Z,15.43
2023-03-23T19:17:12.782Z,15.39
2023-03-23T19:19:43.040Z,15.34
2023-03-23T19:22:11.268Z,15.32
2023-03-23T19:24:38.833Z,15.28
2023-03-23T19:27:06.388Z,15.62
2023-03-23T19:29:34.858Z,15.94
2023-03-23T19:32:02.804Z,15.85
2023-03-23T19:34:32.444Z,15.69
2023-03-23T19:37:05.471Z,15.86
2023-03-23T19:39:34.454Z,16.07
2023-03-23T19:42:02.116Z,16.30
2023-03-23T19:44:29.677Z,16.05
2023-03-23T19:46:57.639Z,16.05
2023-03-23T19:49:25.961Z,16.04
2023-03-23T19:52:09.004Z,16.26
2023-03-23T19:54:38.412Z,16.29
2023-03-23T19:57:06.016Z,16.22
2023-03-23T19:59:33.659Z,16.25
2023-03-23T20:02:02.184Z,16.51
2023-03-23T20:04:29.924Z,16.46
2023-03-23T20:07:00.098Z,16.19
2023-03-23T20:09:27.632Z,16.12
2023-03-23T20:11:55.109Z,15.98
2023-03-23T20:14:22.630Z,15.57
2023-03-23T20:16:50.275Z,15.59
2023-03-23T20:19:17.806Z,15.50
2023-03-23T20:21:45.854Z,15.21
2023-03-23T20:24:14.876Z,15.63
2023-03-23T20:26:44.265Z,15.65
2023-03-23T20:29:12.026Z,15.83
2023-03-23T20:31:41.866Z,15.83
2023-03-23T20:34:11.263Z,16.18
2023-03-23T20:36:42.002Z,15.77
2023-03-23T20:39:12.286Z,15.81
2023-03-23T20:41:42.003Z,15.87
2023-03-23T20:44:13.856Z,15.40
2023-03-23T20:46:41.529Z,15.65
2023-03-23T20:49:09.996Z,15.35
2023-03-23T20:51:37.757Z,15.73
2023-03-23T20:54:06.039Z,15.80
2023-03-23T20:56:34.328Z,16.01
2023-03-23T20:59:04.061Z,16.07
2023-03-23T21:01:33.115Z,16.18
2023-03-23T21:04:00.999Z,16.26
2023-03-23T21:06:29.002Z,16.05
2023-03-23T21:08:57.454Z,16.35
2023-03-23T21:11:26.786Z,16.38
2023-03-23T21:13:55.230Z,16.50
2023-03-23T21:16:24.837Z,16.66
2023-03-23T21:18:52.507Z,16.61
2023-03-23T21:21:20.180Z,16.51
2023-03-23T21:23:52.422Z,16.54
2023-03-23T21:26:22.454Z,16.63
2023-03-23T21:28:53.746Z,16.58
2023-03-23T21:31:25.399Z,16.56
2023-03-23T21:33:54.248Z,16.52
2023-03-23T21:36:21.720Z,16.63
2023-03-23T21:38:50.264Z,16.20
2023-03-23T21:41:18.486Z,16.32
2023-03-23T21:43:46.634Z,16.39
2023-03-23T21:46:18.145Z,16.02
2023-03-23T21:48:50.953Z,15.56
2023-03-23T21:51:22.234Z,16.00
2023-03-23T21:53:50.650Z,16.23
2023-03-23T21:56:18.322Z,16.21
2023-03-23T21:58:46.251Z,16.35
2023-03-23T22:01:13.983Z,16.15
2023-03-23T22:03:42.189Z,16.25
2023-03-23T22:06:12.912Z,16.27
2023-03-23T22:08:43.668Z,16.19
2023-03-23T22:11:14.244Z,15.93
2023-03-23T22:13:42.156Z,15.92
2023-03-23T22:16:11.529Z,15.99
2023-03-23T22:18:39.052Z,16.14
2023-03-23T22:21:07.614Z,16.07
2023-03-23T22:23:35.681Z,15.93
2023-03-23T22:26:05.652Z,15.80
2023-03-23T22:28:36.925Z,15.93
2023-03-23T22:31:07.270Z,15.87
2023-03-23T22:33:35.810Z,15.86
2023-03-23T22:36:06.228Z,15.74
2023-03-23T22:38:34.070Z,15.86
2023-03-23T22:41:02.401Z,15.29
2023-03-23T22:43:31.445Z,15.81
2023-03-23T22:45:59.031Z,15.77
2023-03-23T22:48:27.959Z,15.72
2023-03-23T22:50:55.580Z,15.96
2023-03-23T22:53:23.211Z,15.64
2023-03-23T22:55:54.111Z,15.94
2023-03-23T22:58:21.673Z,15.71
2023-03-23T23:00:55.813Z,15.96
2023-03-23T23:03:24.532Z,15.79
2023-03-23T23:05:53.425Z,15.80
2023-03-23T23:08:21.544Z,15.93
2023-03-23T23:10:51.001Z,15.79
2023-03-23T23:13:19.531Z,15.58
2023-03-23T23:15:51.674Z,15.38
2023-03-23T23:18:20.356Z,15.42
2023-03-23T23:20:50.100Z,15.16
2023-03-23T23:23:17.650Z,15.52
2023-03-23T23:25:45.307Z,15.61
2023-03-23T23:28:12.996Z,15.63
2023-03-23T23:30:40.850Z,15.80
2023-03-23T23:33:09.799Z,15.78
2023-03-23T23:35:37.783Z,15.57
2023-03-23T23:38:05.313Z,15.68
2023-03-23T23:40:32.902Z,15.70
2023-03-23T23:43:00.397Z,15.60
2023-03-23T23:45:28.017Z,15.49
2023-03-23T23:47:56.303Z,15.28
2023-03-23T23:50:25.393Z,15.24
2023-03-23T23:52:53.260Z,15.11
2023-03-23T23:55:21.476Z,14.95
2023-03-23T23:57:49.862Z,15.12
